Terminal Aerodrome Forecast
Issued by NWS

Home | Current Version | Previous Version | Graphics & Text | Print | Product List | Glossary On
Versions: 1 2 3 4 5 6 7 8 9 10 11 12 13 14 15 16 17
763
FTUS43 KMPX 111120
TAFRWF
TAF
KRWF 111120Z 1112/1212 20006KT P6SM SCT025 BKN050
      TEMPO 1117/1121 OVC015
     FM112100 18007KT P6SM OVC015
     FM120000 23005KT 5SM -SN BR OVC015
     FM120700 32010KT P6SM OVC050=

USA.gov is the U.S. government's official web portal to all federal, state and local government web resources and services.